sensor_id;sensor_type;location;lat;lon;timestamp;pressure;altitude;pressure_sealevel;temperature;humidity
78073;BME280;67281;48.770;11.440;2023-06-22T00:01:20;97346.50;;;26.13;53.43
78073;BME280;67281;48.770;11.440;2023-06-22T00:03:49;97341.13;;;26.13;53.09
78073;BME280;67281;48.770;11.440;2023-06-22T00:06:16;97337.63;;;26.12;53.29
78073;BME280;67281;48.770;11.440;2023-06-22T00:08:43;97342.78;;;26.14;53.42
78073;BME280;67281;48.770;11.440;2023-06-22T00:11:10;97333.28;;;26.11;53.73
78073;BME280;67281;48.770;11.440;2023-06-22T00:13:37;97319.84;;;26.11;53.55
78073;BME280;67281;48.770;11.440;2023-06-22T00:16:04;97328.72;;;26.12;54.08
78073;BME280;67281;48.770;11.440;2023-06-22T00:18:31;97335.13;;;26.11;53.77
78073;BME280;67281;48.770;11.440;2023-06-22T00:20:59;97333.47;;;26.10;53.97
78073;BME280;67281;48.770;11.440;2023-06-22T00:23:26;97324.59;;;26.09;54.09
78073;BME280;67281;48.770;11.440;2023-06-22T00:25:53;97335.34;;;26.09;53.55
78073;BME280;67281;48.770;11.440;2023-06-22T00:28:20;97325.63;;;26.08;54.14
78073;BME280;67281;48.770;11.440;2023-06-22T00:30:48;97333.69;;;26.08;54.04
78073;BME280;67281;48.770;11.440;2023-06-22T00:33:16;97339.06;;;26.08;53.50
78073;BME280;67281;48.770;11.440;2023-06-22T00:35:43;97332.84;;;26.08;53.33
78073;BME280;67281;48.770;11.440;2023-06-22T00:38:11;97339.06;;;26.08;53.77
78073;BME280;67281;48.770;11.440;2023-06-22T00:40:38;97334.91;;;26.06;53.64
78073;BME280;67281;48.770;11.440;2023-06-22T00:43:05;97326.03;;;26.05;53.58
78073;BME280;67281;48.770;11.440;2023-06-22T00:45:32;97319.19;;;26.03;54.23
78073;BME280;67281;48.770;11.440;2023-06-22T00:48:00;97315.69;;;26.02;54.12
78073;BME280;67281;48.770;11.440;2023-06-22T00:50:30;97310.31;;;26.02;53.56
78073;BME280;67281;48.770;11.440;2023-06-22T00:53:05;97336.34;;;26.02;54.38
78073;BME280;67281;48.770;11.440;2023-06-22T00:55:45;97324.78;;;26.01;53.24
78073;BME280;67281;48.770;11.440;2023-06-22T00:58:13;97333.88;;;26.00;54.02
78073;BME280;67281;48.770;11.440;2023-06-22T01:00:41;97326.88;;;25.99;54.00
78073;BME280;67281;48.770;11.440;2023-06-22T01:03:08;97327.91;;;25.98;53.63
78073;BME280;67281;48.770;11.440;2023-06-22T01:05:37;97324.59;;;25.96;53.81
78073;BME280;67281;48.770;11.440;2023-06-22T01:08:31;97323.75;;;25.96;53.45
78073;BME280;67281;48.770;11.440;2023-06-22T01:11:23;97327.28;;;25.96;54.05
78073;BME280;67281;48.770;11.440;2023-06-22T01:16:33;97335.53;;;25.95;53.34
78073;BME280;67281;48.770;11.440;2023-06-22T01:19:16;97335.72;;;25.93;54.17
78073;BME280;67281;48.770;11.440;2023-06-22T01:21:46;97332.03;;;25.94;54.05
78073;BME280;67281;48.770;11.440;2023-06-22T01:24:18;97340.06;;;25.94;53.71
78073;BME280;67281;48.770;11.440;2023-06-22T01:27:09;97345.66;;;25.93;54.28
78073;BME280;67281;48.770;11.440;2023-06-22T01:29:41;97338.81;;;25.90;54.09
78073;BME280;67281;48.770;11.440;2023-06-22T01:32:10;97334.69;;;25.88;53.91
78073;BME280;67281;48.770;11.440;2023-06-22T01:34:38;97338.00;;;25.90;53.98
78073;BME280;67281;48.770;11.440;2023-06-22T01:37:07;97337.16;;;25.89;53.24
78073;BME280;67281;48.770;11.440;2023-06-22T01:39:34;97339.03;;;25.89;53.43
78073;BME280;67281;48.770;11.440;2023-06-22T01:42:02;97344.41;;;25.89;53.71
78073;BME280;67281;48.770;11.440;2023-06-22T01:44:30;97343.56;;;25.88;54.29
78073;BME280;67281;48.770;11.440;2023-06-22T01:46:57;97341.28;;;25.85;53.27
78073;BME280;67281;48.770;11.440;2023-06-22T01:49:24;97345.41;;;25.81;53.93
78073;BME280;67281;48.770;11.440;2023-06-22T01:51:52;97344.56;;;25.80;53.86
78073;BME280;67281;48.770;11.440;2023-06-22T01:54:20;97347.25;;;25.80;53.72
78073;BME280;67281;48.770;11.440;2023-06-22T01:56:47;97350.97;;;25.79;54.44
78073;BME280;67281;48.770;11.440;2023-06-22T01:59:23;97355.50;;;25.79;53.65
78073;BME280;67281;48.770;11.440;2023-06-22T02:02:02;97358.19;;;25.79;54.22
78073;BME280;67281;48.770;11.440;2023-06-22T02:04:36;97354.47;;;25.80;53.79
78073;BME280;67281;48.770;11.440;2023-06-22T02:07:09;97360.69;;;25.80;54.16
78073;BME280;67281;48.770;11.440;2023-06-22T02:09:38;97339.41;;;25.79;53.50
78073;BME280;67281;48.770;11.440;2023-06-22T02:12:10;97348.47;;;25.78;54.46
78073;BME280;67281;48.770;11.440;2023-06-22T02:14:38;97345.16;;;25.76;53.90
78073;BME280;67281;48.770;11.440;2023-06-22T02:17:08;97341.66;;;25.75;54.23
78073;BME280;67281;48.770;11.440;2023-06-22T02:19:36;97342.50;;;25.76;54.10
78073;BME280;67281;48.770;11.440;2023-06-22T02:22:03;97334.44;;;25.76;53.71
78073;BME280;67281;48.770;11.440;2023-06-22T02:24:30;97333.81;;;25.74;53.44
78073;BME280;67281;48.770;11.440;2023-06-22T02:26:59;97330.91;;;25.75;53.81
78073;BME280;67281;48.770;11.440;2023-06-22T02:29:27;97336.50;;;25.74;54.13
78073;BME280;67281;48.770;11.440;2023-06-22T02:31:54;97317.06;;;25.72;54.18
78073;BME280;67281;48.770;11.440;2023-06-22T02:34:21;97322.25;;;25.73;53.85
78073;BME280;67281;48.770;11.440;2023-06-22T02:36:49;97315.84;;;25.74;53.88
78073;BME280;67281;48.770;11.440;2023-06-22T02:39:23;97309.66;;;25.74;53.41
78073;BME280;67281;48.770;11.440;2023-06-22T02:41:54;97312.72;;;25.71;53.87
78073;BME280;67281;48.770;11.440;2023-06-22T02:44:21;97307.56;;;25.69;54.22
78073;BME280;67281;48.770;11.440;2023-06-22T02:46:48;97310.03;;;25.71;53.73
78073;BME280;67281;48.770;11.440;2023-06-22T02:49:15;97314.59;;;25.70;53.97
78073;BME280;67281;48.770;11.440;2023-06-22T02:51:45;97317.06;;;25.72;53.96
78073;BME280;67281;48.770;11.440;2023-06-22T02:54:12;97321.41;;;25.73;53.98
78073;BME280;67281;48.770;11.440;2023-06-22T02:56:39;97321.38;;;25.66;54.40
78073;BME280;67281;48.770;11.440;2023-06-22T02:59:07;97320.34;;;25.67;54.02
78073;BME280;67281;48.770;11.440;2023-06-22T03:01:34;97319.31;;;25.68;53.79
78073;BME280;67281;48.770;11.440;2023-06-22T03:04:07;97327.59;;;25.67;53.73
78073;BME280;67281;48.770;11.440;2023-06-22T03:06:35;97327.38;;;25.68;53.65
78073;BME280;67281;48.770;11.440;2023-06-22T03:09:04;97322.22;;;25.67;53.81
78073;BME280;67281;48.770;11.440;2023-06-22T03:11:32;97312.50;;;25.66;53.43
78073;BME280;67281;48.770;11.440;2023-06-22T03:14:00;97316.00;;;25.66;53.97
78073;BME280;67281;48.770;11.440;2023-06-22T03:16:27;97309.63;;;25.67;53.62
78073;BME280;67281;48.770;11.440;2023-06-22T03:18:54;97318.69;;;25.66;54.26
78073;BME280;67281;48.770;11.440;2023-06-22T03:21:27;97313.53;;;25.65;53.70
78073;BME280;67281;48.770;11.440;2023-06-22T03:23:55;97302.13;;;25.63;53.81
78073;BME280;67281;48.770;11.440;2023-06-22T03:26:21;97316.38;;;25.63;54.24
78073;BME280;67281;48.770;11.440;2023-06-22T03:28:49;97313.69;;;25.63;53.59
78073;BME280;67281;48.770;11.440;2023-06-22T03:31:16;97311.03;;;25.63;54.07
78073;BME280;67281;48.770;11.440;2023-06-22T03:33:49;97312.69;;;25.64;54.12
78073;BME280;67281;48.770;11.440;2023-06-22T03:36:17;97311.22;;;25.62;54.25
78073;BME280;67281;48.770;11.440;2023-06-22T03:38:48;97318.25;;;25.63;53.88
78073;BME280;67281;48.770;11.440;2023-06-22T03:41:15;97318.06;;;25.64;53.46
78073;BME280;67281;48.770;11.440;2023-06-22T03:43:42;97318.25;;;25.63;53.88
78073;BME280;67281;48.770;11.440;2023-06-22T03:46:09;97312.88;;;25.63;53.97
78073;BME280;67281;48.770;11.440;2023-06-22T03:48:37;97314.34;;;25.65;53.72
78073;BME280;67281;48.770;11.440;2023-06-22T03:51:04;97311.03;;;25.63;54.33
78073;BME280;67281;48.770;11.440;2023-06-22T03:53:31;97321.38;;;25.66;53.40
78073;BME280;67281;48.770;11.440;2023-06-22T03:55:58;97318.91;;;25.65;54.01
78073;BME280;67281;48.770;11.440;2023-06-22T03:58:24;97327.53;;;25.60;53.99
78073;BME280;67281;48.770;11.440;2023-06-22T04:00:52;97336.41;;;25.61;53.48
78073;BME280;67281;48.770;11.440;2023-06-22T04:03:19;97334.75;;;25.60;54.22
78073;BME280;67281;48.770;11.440;2023-06-22T04:05:47;97334.53;;;25.61;54.17
78073;BME280;67281;48.770;11.440;2023-06-22T04:08:15;97338.69;;;25.64;53.74
78073;BME280;67281;48.770;11.440;2023-06-22T04:10:42;97332.50;;;25.63;54.09
78073;BME280;67281;48.770;11.440;2023-06-22T04:13:10;97331.50;;;25.64;53.35
78073;BME280;67281;48.770;11.440;2023-06-22T04:15:36;97328.97;;;25.63;53.32
78073;BME280;67281;48.770;11.440;2023-06-22T04:18:03;97328.34;;;25.61;53.65
78073;BME280;67281;48.770;11.440;2023-06-22T04:20:31;97328.34;;;25.61;53.80
78073;BME280;67281;48.770;11.440;2023-06-22T04:22:59;97330.00;;;25.62;53.50
78073;BME280;67281;48.770;11.440;2023-06-22T04:25:26;97344.25;;;25.62;53.94
78073;BME280;67281;48.770;11.440;2023-06-22T04:27:53;97342.81;;;25.60;53.48
78073;BME280;67281;48.770;11.440;2023-06-22T04:30:20;97333.72;;;25.61;53.89
78073;BME280;67281;48.770;11.440;2023-06-22T04:32:47;97336.19;;;25.62;53.45
78073;BME280;67281;48.770;11.440;2023-06-22T04:35:25;97333.50;;;24.65;59.34
78073;BME280;67281;48.770;11.440;2023-06-22T04:37:53;97335.06;;;24.10;61.50
78073;BME280;67281;48.770;11.440;2023-06-22T04:40:22;97337.41;;;24.35;60.18
78073;BME280;67281;48.770;11.440;2023-06-22T04:42:49;97332.69;;;24.37;61.09
78073;BME280;67281;48.770;11.440;2023-06-22T04:45:20;97337.84;;;24.02;62.68
78073;BME280;67281;48.770;11.440;2023-06-22T04:47:48;97333.88;;;24.34;61.23
78073;BME280;67281;48.770;11.440;2023-06-22T04:50:16;97330.44;;;24.40;62.08
78073;BME280;67281;48.770;11.440;2023-06-22T04:52:44;97340.16;;;24.05;63.62
78073;BME280;67281;48.770;11.440;2023-06-22T04:55:12;97333.31;;;24.39;62.40
78073;BME280;67281;48.770;11.440;2023-06-22T04:57:41;97333.63;;;24.29;62.87
78073;BME280;67281;48.770;11.440;2023-06-22T05:00:11;97329.09;;;24.30;63.04
78073;BME280;67281;48.770;11.440;2023-06-22T05:02:39;97325.88;;;24.19;63.63
78073;BME280;67281;48.770;11.440;2023-06-22T05:05:07;97326.88;;;23.97;64.01
78073;BME280;67281;48.770;11.440;2023-06-22T05:07:34;97318.97;;;23.89;65.15
78073;BME280;67281;48.770;11.440;2023-06-22T05:10:04;97328.50;;;24.13;64.13
78073;BME280;67281;48.770;11.440;2023-06-22T05:12:31;97324.00;;;23.99;64.59
78073;BME280;67281;48.770;11.440;2023-06-22T05:14:58;97322.03;;;23.86;65.44
78073;BME280;67281;48.770;11.440;2023-06-22T05:17:25;97314.09;;;24.14;64.17
78073;BME280;67281;48.770;11.440;2023-06-22T05:19:52;97312.31;;;24.21;63.82
78073;BME280;67281;48.770;11.440;2023-06-22T05:22:20;97301.53;;;24.14;64.24
78073;BME280;67281;48.770;11.440;2023-06-22T05:24:47;97307.13;;;23.77;66.08
78073;BME280;67281;48.770;11.440;2023-06-22T05:27:14;97308.00;;;23.84;65.89
78073;BME280;67281;48.770;11.440;2023-06-22T05:29:41;97296.16;;;23.93;65.64
78073;BME280;67281;48.770;11.440;2023-06-22T05:32:09;97303.41;;;23.78;65.71
78073;BME280;67281;48.770;11.440;2023-06-22T05:34:36;97305.84;;;23.94;65.69
78073;BME280;67281;48.770;11.440;2023-06-22T05:37:03;97313.69;;;24.17;64.20
78073;BME280;67281;48.770;11.440;2023-06-22T05:39:30;97314.50;;;23.96;65.68
78073;BME280;67281;48.770;11.440;2023-06-22T05:41:57;97309.31;;;24.09;64.87
78073;BME280;67281;48.770;11.440;2023-06-22T05:44:24;97306.69;;;24.16;64.09
78073;BME280;67281;48.770;11.440;2023-06-22T05:46:51;97302.78;;;23.97;65.57
78073;BME280;67281;48.770;11.440;2023-06-22T05:49:18;97296.66;;;24.03;65.07
78073;BME280;67281;48.770;11.440;2023-06-22T05:51:45;97284.06;;;24.18;64.32
78073;BME280;67281;48.770;11.440;2023-06-22T05:54:12;97279.78;;;24.03;64.94
78073;BME280;67281;48.770;11.440;2023-06-22T05:56:40;97282.00;;;23.99;64.74
78073;BME280;67281;48.770;11.440;2023-06-22T05:59:07;97283.16;;;24.11;64.77
78073;BME280;67281;48.770;11.440;2023-06-22T06:01:34;97284.00;;;24.12;64.86
78073;BME280;67281;48.770;11.440;2023-06-22T06:04:03;97284.00;;;24.12;64.84
78073;BME280;67281;48.770;11.440;2023-06-22T06:06:36;97287.25;;;24.07;64.38
78073;BME280;67281;48.770;11.440;2023-06-22T06:09:04;97283.94;;;24.05;65.51
78073;BME280;67281;48.770;11.440;2023-06-22T06:11:31;97279.97;;;24.01;64.91
78073;BME280;67281;48.770;11.440;2023-06-22T06:13:58;97295.16;;;24.15;64.61
78073;BME280;67281;48.770;11.440;2023-06-22T06:16:25;97286.53;;;24.20;64.46
78073;BME280;67281;48.770;11.440;2023-06-22T06:18:52;97294.75;;;24.18;64.36
78073;BME280;67281;48.770;11.440;2023-06-22T06:21:21;97298.56;;;23.88;65.79
78073;BME280;67281;48.770;11.440;2023-06-22T06:23:48;97282.41;;;23.96;65.18
78073;BME280;67281;48.770;11.440;2023-06-22T06:26:15;97274.31;;;24.11;65.02
78073;BME280;67281;48.770;11.440;2023-06-22T06:28:43;97273.94;;;24.35;63.65
78073;BME280;67281;48.770;11.440;2023-06-22T06:31:10;97278.47;;;24.35;63.66
78073;BME280;67281;48.770;11.440;2023-06-22T06:33:39;97272.84;;;24.30;63.32
78073;BME280;67281;48.770;11.440;2023-06-22T06:36:05;97271.19;;;24.29;63.43
78073;BME280;67281;48.770;11.440;2023-06-22T06:38:35;97265.97;;;24.42;62.78
78073;BME280;67281;48.770;11.440;2023-06-22T06:41:01;97260.00;;;24.25;62.70
78073;BME280;67281;48.770;11.440;2023-06-22T06:43:28;97255.00;;;24.37;62.82
78073;BME280;67281;48.770;11.440;2023-06-22T06:45:55;97254.84;;;24.23;63.00
78073;BME280;67281;48.770;11.440;2023-06-22T06:48:22;97256.22;;;24.34;62.46
78073;BME280;67281;48.770;11.440;2023-06-22T06:50:49;97254.22;;;24.43;62.24
78073;BME280;67281;48.770;11.440;2023-06-22T06:53:16;97257.53;;;24.45;61.99
78073;BME280;67281;48.770;11.440;2023-06-22T06:55:43;97256.75;;;24.51;62.08
78073;BME280;67281;48.770;11.440;2023-06-22T06:58:12;97248.50;;;24.52;61.86
78073;BME280;67281;48.770;11.440;2023-06-22T07:00:39;97248.16;;;24.62;61.70
78073;BME280;67281;48.770;11.440;2023-06-22T07:03:06;97246.16;;;24.71;61.29
78073;BME280;67281;48.770;11.440;2023-06-22T07:05:34;97244.50;;;24.70;61.27
78073;BME280;67281;48.770;11.440;2023-06-22T07:08:01;97250.44;;;24.65;61.61
78073;BME280;67281;48.770;11.440;2023-06-22T07:10:29;97237.44;;;24.62;62.32
78073;BME280;67281;48.770;11.440;2023-06-22T07:12:56;97239.88;;;24.57;62.41
78073;BME280;67281;48.770;11.440;2023-06-22T07:15:24;97237.28;;;24.70;61.92
78073;BME280;67281;48.770;11.440;2023-06-22T07:17:51;97238.38;;;24.82;61.25
78073;BME280;67281;48.770;11.440;2023-06-22T07:20:20;97234.47;;;24.85;60.74
78073;BME280;67281;48.770;11.440;2023-06-22T07:22:47;97234.31;;;24.93;59.26
78073;BME280;67281;48.770;11.440;2023-06-22T07:25:14;97243.78;;;24.89;59.82
78073;BME280;67281;48.770;11.440;2023-06-22T07:27:47;97232.66;;;24.92;59.45
78073;BME280;67281;48.770;11.440;2023-06-22T07:30:23;97224.34;;;24.80;59.89
78073;BME280;67281;48.770;11.440;2023-06-22T07:32:50;97230.81;;;24.93;59.26
78073;BME280;67281;48.770;11.440;2023-06-22T07:35:17;97220.78;;;25.01;59.58
78073;BME280;67281;48.770;11.440;2023-06-22T07:37:44;97217.50;;;25.06;59.08
78073;BME280;67281;48.770;11.440;2023-06-22T07:40:12;97211.94;;;25.07;59.47
78073;BME280;67281;48.770;11.440;2023-06-22T07:42:39;97209.31;;;25.20;58.98
78073;BME280;67281;48.770;11.440;2023-06-22T07:45:07;97203.75;;;25.22;58.87
78073;BME280;67281;48.770;11.440;2023-06-22T07:47:37;97200.03;;;25.30;58.37
78073;BME280;67281;48.770;11.440;2023-06-22T07:50:04;97205.19;;;25.31;57.49
78073;BME280;67281;48.770;11.440;2023-06-22T07:52:31;97196.53;;;25.29;57.89
78073;BME280;67281;48.770;11.440;2023-06-22T07:54:58;97192.41;;;25.33;58.41
78073;BME280;67281;48.770;11.440;2023-06-22T07:57:25;97192.41;;;25.33;58.17
78073;BME280;67281;48.770;11.440;2023-06-22T08:00:03;97195.13;;;25.46;58.44
78073;BME280;67281;48.770;11.440;2023-06-22T08:02:39;97197.44;;;25.56;58.33
78073;BME280;67281;48.770;11.440;2023-06-22T08:05:08;97204.88;;;25.61;57.72
78073;BME280;67281;48.770;11.440;2023-06-22T08:07:47;97202.41;;;25.59;57.69
78073;BME280;67281;48.770;11.440;2023-06-22T08:10:14;97213.81;;;25.68;57.07
78073;BME280;67281;48.770;11.440;2023-06-22T08:12:42;97208.66;;;25.73;56.63
78073;BME280;67281;48.770;11.440;2023-06-22T08:15:09;97207.84;;;25.79;56.86
78073;BME280;67281;48.770;11.440;2023-06-22T08:17:37;97214.88;;;25.86;57.30
78073;BME280;67281;48.770;11.440;2023-06-22T08:20:06;97213.22;;;26.05;55.97
78073;BME280;67281;48.770;11.440;2023-06-22T08:22:39;97206.81;;;26.06;56.08
78073;BME280;67281;48.770;11.440;2023-06-22T08:25:06;97207.03;;;26.18;54.93
78073;BME280;67281;48.770;11.440;2023-06-22T08:27:33;97195.25;;;26.26;54.88
78073;BME280;67281;48.770;11.440;2023-06-22T08:30:01;97193.38;;;26.19;54.49
78073;BME280;67281;48.770;11.440;2023-06-22T08:32:28;97197.53;;;26.35;54.45
78073;BME280;67281;48.770;11.440;2023-06-22T08:34:56;97198.38;;;26.36;54.75
78073;BME280;67281;48.770;11.440;2023-06-22T08:37:23;97190.72;;;26.39;54.88
78073;BME280;67281;48.770;11.440;2023-06-22T08:39:59;97192.97;;;26.49;54.34
78073;BME280;67281;48.770;11.440;2023-06-22T08:42:26;97200.44;;;26.47;54.08
78073;BME280;67281;48.770;11.440;2023-06-22T08:44:53;97208.47;;;26.54;54.20
78073;BME280;67281;48.770;11.440;2023-06-22T08:47:20;97206.59;;;26.67;54.62
78073;BME280;67281;48.770;11.440;2023-06-22T08:49:48;97203.72;;;26.62;54.31
78073;BME280;67281;48.770;11.440;2023-06-22T08:52:17;97199.50;;;26.79;54.14
78073;BME280;67281;48.770;11.440;2023-06-22T08:54:45;97197.63;;;26.87;53.97
78073;BME280;67281;48.770;11.440;2023-06-22T08:57:12;97193.72;;;26.76;53.92
78073;BME280;67281;48.770;11.440;2023-06-22T08:59:39;97194.09;;;26.93;53.62
78073;BME280;67281;48.770;11.440;2023-06-22T09:02:06;97193.69;;;26.96;53.63
78073;BME280;67281;48.770;11.440;2023-06-22T09:04:33;97184.19;;;26.87;52.30
78073;BME280;67281;48.770;11.440;2023-06-22T09:07:02;97181.28;;;26.88;51.52
78073;BME280;67281;48.770;11.440;2023-06-22T09:09:29;97190.75;;;27.10;51.61
78073;BME280;67281;48.770;11.440;2023-06-22T09:11:56;97173.94;;;27.22;51.77
78073;BME280;67281;48.770;11.440;2023-06-22T09:14:22;97173.72;;;27.23;50.87
78073;BME280;67281;48.770;11.440;2023-06-22T09:16:49;97171.69;;;27.19;51.47
78073;BME280;67281;48.770;11.440;2023-06-22T09:19:16;97175.09;;;27.39;51.44
78073;BME280;67281;48.770;11.440;2023-06-22T09:21:43;97170.28;;;27.47;51.31
78073;BME280;67281;48.770;11.440;2023-06-22T09:24:09;97176.00;;;27.58;52.05
78073;BME280;67281;48.770;11.440;2023-06-22T09:26:36;97170.38;;;27.34;50.53
78073;BME280;67281;48.770;11.440;2023-06-22T09:29:06;97170.75;;;27.38;49.55
78073;BME280;67281;48.770;11.440;2023-06-22T09:31:33;97166.22;;;27.38;49.93
78073;BME280;67281;48.770;11.440;2023-06-22T09:34:00;97164.31;;;27.45;48.94
78073;BME280;67281;48.770;11.440;2023-06-22T09:36:26;97155.28;;;27.65;49.11
78073;BME280;67281;48.770;11.440;2023-06-22T09:38:53;97154.44;;;27.64;48.85
78073;BME280;67281;48.770;11.440;2023-06-22T09:41:25;97155.63;;;27.75;48.98
78073;BME280;67281;48.770;11.440;2023-06-22T09:43:52;97150.16;;;27.88;49.09
78073;BME280;67281;48.770;11.440;2023-06-22T09:46:22;97149.81;;;27.78;48.59
78073;BME280;67281;48.770;11.440;2023-06-22T09:48:52;97147.09;;;27.78;48.15
78073;BME280;67281;48.770;11.440;2023-06-22T09:51:19;97141.72;;;27.78;48.65
78073;BME280;67281;48.770;11.440;2023-06-22T09:53:51;97137.16;;;28.03;47.99
78073;BME280;67281;48.770;11.440;2023-06-22T09:56:18;97130.00;;;28.22;47.94
78073;BME280;67281;48.770;11.440;2023-06-22T09:58:46;97133.84;;;28.26;48.09
78073;BME280;67281;48.770;11.440;2023-06-22T10:01:13;97134.56;;;28.22;47.61
78073;BME280;67281;48.770;11.440;2023-06-22T10:03:43;97125.72;;;28.08;47.92
78073;BME280;67281;48.770;11.440;2023-06-22T10:06:10;97133.69;;;28.21;47.79
78073;BME280;67281;48.770;11.440;2023-06-22T10:08:37;97137.38;;;28.27;48.09
78073;BME280;67281;48.770;11.440;2023-06-22T10:11:04;97132.41;;;28.49;47.57
78073;BME280;67281;48.770;11.440;2023-06-22T10:13:31;97128.34;;;28.39;47.59
78073;BME280;67281;48.770;11.440;2023-06-22T10:15:58;97121.84;;;28.47;47.69
78073;BME280;67281;48.770;11.440;2023-06-22T10:18:24;97113.59;;;28.42;47.29
78073;BME280;67281;48.770;11.440;2023-06-22T10:20:51;97115.69;;;28.58;47.41
78073;BME280;67281;48.770;11.440;2023-06-22T10:23:19;97117.03;;;28.67;47.24
78073;BME280;67281;48.770;11.440;2023-06-22T10:25:46;97116.75;;;28.57;47.84
78073;BME280;67281;48.770;11.440;2023-06-22T10:28:14;97112.88;;;28.90;47.03
78073;BME280;67281;48.770;11.440;2023-06-22T10:30:41;97114.41;;;28.79;46.68
78073;BME280;67281;48.770;11.440;2023-06-22T10:33:11;97104.16;;;28.69;46.57
78073;BME280;67281;48.770;11.440;2023-06-22T10:35:38;97103.50;;;28.92;46.45
78073;BME280;67281;48.770;11.440;2023-06-22T10:38:06;97106.28;;;29.16;45.96
78073;BME280;67281;48.770;11.440;2023-06-22T10:40:33;97100.19;;;29.20;45.79
78073;BME280;67281;48.770;11.440;2023-06-22T10:43:00;97106.28;;;29.16;46.48
78073;BME280;67281;48.770;11.440;2023-06-22T10:45:26;97108.34;;;29.32;46.30
78073;BME280;67281;48.770;11.440;2023-06-22T10:47:55;97105.78;;;29.37;45.70
78073;BME280;67281;48.770;11.440;2023-06-22T10:50:22;97107.34;;;29.15;46.31
78073;BME280;67281;48.770;11.440;2023-06-22T10:52:51;97107.06;;;29.04;46.23
78073;BME280;67281;48.770;11.440;2023-06-22T10:55:18;97098.69;;;29.24;45.50
78073;BME280;67281;48.770;11.440;2023-06-22T10:57:45;97097.38;;;29.45;45.56
78073;BME280;67281;48.770;11.440;2023-06-22T11:00:14;97094.16;;;29.06;46.05
78073;BME280;67281;48.770;11.440;2023-06-22T11:02:42;97091.44;;;28.95;46.24
78073;BME280;67281;48.770;11.440;2023-06-22T11:05:10;97088.97;;;29.05;46.31
78073;BME280;67281;48.770;11.440;2023-06-22T11:07:37;97086.25;;;29.23;46.06
78073;BME280;67281;48.770;11.440;2023-06-22T11:10:25;97082.66;;;29.11;46.08
78073;BME280;67281;48.770;11.440;2023-06-22T11:12:52;97086.56;;;29.15;46.19
78073;BME280;67281;48.770;11.440;2023-06-22T11:15:20;97095.34;;;29.40;46.06
78073;BME280;67281;48.770;11.440;2023-06-22T11:17:47;97097.84;;;29.42;46.42
78073;BME280;67281;48.770;11.440;2023-06-22T11:20:13;97100.25;;;29.62;45.78
78073;BME280;67281;48.770;11.440;2023-06-22T11:22:40;97094.25;;;29.60;46.10
78073;BME280;67281;48.770;11.440;2023-06-22T11:25:08;97083.91;;;29.57;45.94
78073;BME280;67281;48.770;11.440;2023-06-22T11:27:35;97081.94;;;29.64;46.16
78073;BME280;67281;48.770;11.440;2023-06-22T11:30:02;97081.00;;;29.70;45.71
78073;BME280;67281;48.770;11.440;2023-06-22T11:32:29;97081.09;;;29.75;45.16
78073;BME280;67281;48.770;11.440;2023-06-22T11:34:56;97079.44;;;29.74;44.70
78073;BME280;67281;48.770;11.440;2023-06-22T11:37:23;97082.03;;;29.81;44.39
78073;BME280;67281;48.770;11.440;2023-06-22T11:39:50;97073.81;;;29.87;44.82
78073;BME280;67281;48.770;11.440;2023-06-22T11:42:31;97074.56;;;30.06;44.25
78073;BME280;67281;48.770;11.440;2023-06-22T11:44:58;97072.81;;;30.00;44.28
78073;BME280;67281;48.770;11.440;2023-06-22T11:47:25;97071.16;;;30.11;44.02
78073;BME280;67281;48.770;11.440;2023-06-22T11:49:52;97065.53;;;30.24;44.33
78073;BME280;67281;48.770;11.440;2023-06-22T11:52:19;97057.66;;;30.22;43.58
78073;BME280;67281;48.770;11.440;2023-06-22T11:54:49;97058.81;;;30.15;44.11
78073;BME280;67281;48.770;11.440;2023-06-22T11:57:17;97051.75;;;30.37;43.90
78073;BME280;67281;48.770;11.440;2023-06-22T11:59:44;97041.75;;;30.37;44.00
78073;BME280;67281;48.770;11.440;2023-06-22T12:02:11;97040.25;;;30.30;43.57
78073;BME280;67281;48.770;11.440;2023-06-22T12:04:38;97036.69;;;30.41;43.82
78073;BME280;67281;48.770;11.440;2023-06-22T12:07:04;97024.66;;;30.60;42.97
78073;BME280;67281;48.770;11.440;2023-06-22T12:09:31;97027.84;;;30.46;43.60
78073;BME280;67281;48.770;11.440;2023-06-22T12:11:58;97028.47;;;30.36;43.37
78073;BME280;67281;48.770;11.440;2023-06-22T12:14:25;97025.41;;;30.32;42.89
78073;BME280;67281;48.770;11.440;2023-06-22T12:16:52;97022.75;;;30.49;42.97
78073;BME280;67281;48.770;11.440;2023-06-22T12:19:18;97023.75;;;30.43;43.29
78073;BME280;67281;48.770;11.440;2023-06-22T12:21:45;97014.25;;;30.29;43.90
78073;BME280;67281;48.770;11.440;2023-06-22T12:24:12;97012.03;;;30.26;44.21
78073;BME280;67281;48.770;11.440;2023-06-22T12:26:39;97008.81;;;30.40;43.79
78073;BME280;67281;48.770;11.440;2023-06-22T12:29:06;97022.38;;;30.69;43.44
78073;BME280;67281;48.770;11.440;2023-06-22T12:31:33;97011.09;;;30.72;43.37
78073;BME280;67281;48.770;11.440;2023-06-22T12:34:00;97012.16;;;30.71;43.47
78073;BME280;67281;48.770;11.440;2023-06-22T12:36:27;97014.94;;;30.76;43.18
78073;BME280;67281;48.770;11.440;2023-06-22T12:38:54;97014.84;;;30.71;42.83
78073;BME280;67281;48.770;11.440;2023-06-22T12:41:22;97019.34;;;30.94;43.08
78073;BME280;67281;48.770;11.440;2023-06-22T12:43:48;97026.56;;;31.17;42.32
78073;BME280;67281;48.770;11.440;2023-06-22T12:46:15;97004.50;;;31.25;42.66
78073;BME280;67281;48.770;11.440;2023-06-22T12:48:42;96995.88;;;31.45;41.59
78073;BME280;67281;48.770;11.440;2023-06-22T12:51:09;96998.59;;;31.45;42.24
78073;BME280;67281;48.770;11.440;2023-06-22T12:53:36;97004.66;;;31.18;42.35
78073;BME280;67281;48.770;11.440;2023-06-22T12:56:03;96995.56;;;31.41;41.68
78073;BME280;67281;48.770;11.440;2023-06-22T12:58:30;96983.31;;;31.55;41.69